sensor_id;sensor_type;location;lat;lon;timestamp;pressure;altitude;pressure_sealevel;temperature;humidity
9474;BME280;8865;47.636;7.692;2023-04-01T00:00:55;97369.38;;;8.63;100.00
9474;BME280;8865;47.636;7.692;2023-04-01T00:03:22;97374.19;;;8.67;100.00
9474;BME280;8865;47.636;7.692;2023-04-01T00:05:48;97369.81;;;8.68;100.00
9474;BME280;8865;47.636;7.692;2023-04-01T00:08:15;97369.38;;;8.72;100.00
9474;BME280;8865;47.636;7.692;2023-04-01T00:10:41;97358.09;;;8.72;100.00
9474;BME280;8865;47.636;7.692;2023-04-01T00:13:08;97352.44;;;8.76;100.00
9474;BME280;8865;47.636;7.692;2023-04-01T00:15:34;97341.72;;;8.80;100.00
9474;BME280;8865;47.636;7.692;2023-04-01T00:18:01;97341.72;;;8.80;100.00
9474;BME280;8865;47.636;7.692;2023-04-01T00:20:28;97335.53;;;8.81;100.00
9474;BME280;8865;47.636;7.692;2023-04-01T00:22:54;97337.03;;;8.83;100.00
9474;BME280;8865;47.636;7.692;2023-04-01T00:25:20;97341.44;;;8.83;100.00
9474;BME280;8865;47.636;7.692;2023-04-01T00:27:46;97328.38;;;8.83;100.00
9474;BME280;8865;47.636;7.692;2023-04-01T00:30:12;97335.69;;;8.79;100.00
9474;BME280;8865;47.636;7.692;2023-04-01T00:32:39;97323.28;;;8.81;100.00
9474;BME280;8865;47.636;7.692;2023-04-01T00:35:05;97329.09;;;8.75;100.00
9474;BME280;8865;47.636;7.692;2023-04-01T00:37:34;97319.41;;;8.57;100.00
9474;BME280;8865;47.636;7.692;2023-04-01T00:40:01;97330.66;;;8.58;100.00
9474;BME280;8865;47.636;7.692;2023-04-01T00:42:27;97321.03;;;8.68;100.00
9474;BME280;8865;47.636;7.692;2023-04-01T00:44:54;97326.09;;;8.70;100.00
9474;BME280;8865;47.636;7.692;2023-04-01T00:47:22;97323.44;;;8.80;100.00
9474;BME280;8865;47.636;7.692;2023-04-01T00:49:51;97324.13;;;8.82;100.00
9474;BME280;8865;47.636;7.692;2023-04-01T00:52:21;97318.84;;;8.91;100.00
9474;BME280;8865;47.636;7.692;2023-04-01T00:54:50;97307.03;;;8.97;100.00
9474;BME280;8865;47.636;7.692;2023-04-01T00:57:23;97313.13;;;9.06;100.00
9474;BME280;8865;47.636;7.692;2023-04-01T00:59:52;97315.38;;;9.01;100.00
9474;BME280;8865;47.636;7.692;2023-04-01T01:02:20;97305.22;;;8.98;100.00
9474;BME280;8865;47.636;7.692;2023-04-01T01:04:46;97313.06;;;8.98;100.00
9474;BME280;8865;47.636;7.692;2023-04-01T01:10:10;97296.34;;;9.08;100.00
9474;BME280;8865;47.636;7.692;2023-04-01T01:12:45;97291.50;;;9.14;100.00
9474;BME280;8865;47.636;7.692;2023-04-01T01:17:49;97287.28;;;9.13;100.00
9474;BME280;8865;47.636;7.692;2023-04-01T01:20:47;97285.91;;;9.08;100.00
9474;BME280;8865;47.636;7.692;2023-04-01T01:29:43;97296.06;;;9.11;100.00
9474;BME280;8865;47.636;7.692;2023-04-01T01:32:30;97300.84;;;9.16;100.00
9474;BME280;8865;47.636;7.692;2023-04-01T01:35:22;97294.97;;;9.14;100.00
9474;BME280;8865;47.636;7.692;2023-04-01T01:37:53;97281.16;;;9.22;100.00
9474;BME280;8865;47.636;7.692;2023-04-01T01:40:21;97287.06;;;9.24;100.00
9474;BME280;8865;47.636;7.692;2023-04-01T01:42:50;97298.28;;;9.34;100.00
9474;BME280;8865;47.636;7.692;2023-04-01T01:45:20;97299.09;;;9.35;100.00
9474;BME280;8865;47.636;7.692;2023-04-01T01:47:48;97296.97;;;9.38;100.00
9474;BME280;8865;47.636;7.692;2023-04-01T01:50:15;97288.63;;;9.35;100.00
9474;BME280;8865;47.636;7.692;2023-04-01T01:52:42;97292.19;;;9.34;100.00
9474;BME280;8865;47.636;7.692;2023-04-01T01:55:30;97283.56;;;9.33;100.00
9474;BME280;8865;47.636;7.692;2023-04-01T01:58:04;97279.13;;;9.34;100.00
9474;BME280;8865;47.636;7.692;2023-04-01T02:00:33;97289.72;;;9.32;100.00
9474;BME280;8865;47.636;7.692;2023-04-01T02:03:00;97279.44;;;9.30;100.00
9474;BME280;8865;47.636;7.692;2023-04-01T02:05:27;97275.25;;;9.38;100.00
9474;BME280;8865;47.636;7.692;2023-04-01T02:08:26;97276.91;;;9.39;100.00
9474;BME280;8865;47.636;7.692;2023-04-01T02:11:07;97271.44;;;9.32;100.00
9474;BME280;8865;47.636;7.692;2023-04-01T02:13:54;97273.09;;;9.33;100.00
9474;BME280;8865;47.636;7.692;2023-04-01T02:16:34;97278.63;;;9.30;100.00
9474;BME280;8865;47.636;7.692;2023-04-01T02:19:03;97273.09;;;9.33;100.00
9474;BME280;8865;47.636;7.692;2023-04-01T02:21:33;97273.75;;;9.35;100.00
9474;BME280;8865;47.636;7.692;2023-04-01T02:24:02;97272.00;;;9.36;100.00
9474;BME280;8865;47.636;7.692;2023-04-01T02:26:30;97280.63;;;9.36;100.00
9474;BME280;8865;47.636;7.692;2023-04-01T02:28:57;97277.88;;;9.38;100.00
9474;BME280;8865;47.636;7.692;2023-04-01T02:31:25;97270.03;;;9.38;100.00
9474;BME280;8865;47.636;7.692;2023-04-01T02:33:51;97283.47;;;9.43;100.00
9474;BME280;8865;47.636;7.692;2023-04-01T02:36:18;97274.00;;;9.42;100.00
9474;BME280;8865;47.636;7.692;2023-04-01T02:38:45;97282.91;;;9.49;100.00
9474;BME280;8865;47.636;7.692;2023-04-01T02:41:11;97283.16;;;9.46;100.00
9474;BME280;8865;47.636;7.692;2023-04-01T02:43:38;97273.16;;;9.41;100.00
9474;BME280;8865;47.636;7.692;2023-04-01T02:46:04;97284.47;;;9.42;100.00
9474;BME280;8865;47.636;7.692;2023-04-01T02:48:30;97280.19;;;9.41;100.00
9474;BME280;8865;47.636;7.692;2023-04-01T02:50:56;97276.63;;;9.42;100.00
9474;BME280;8865;47.636;7.692;2023-04-01T02:53:22;97280.50;;;9.38;100.00
9474;BME280;8865;47.636;7.692;2023-04-01T02:55:48;97277.28;;;9.44;100.00
9474;BME280;8865;47.636;7.692;2023-04-01T02:58:16;97285.78;;;9.46;100.00
9474;BME280;8865;47.636;7.692;2023-04-01T03:00:42;97285.53;;;9.49;100.00
9474;BME280;8865;47.636;7.692;2023-04-01T03:03:09;97301.91;;;9.41;100.00
9474;BME280;8865;47.636;7.692;2023-04-01T03:05:35;97308.25;;;9.21;100.00
9474;BME280;8865;47.636;7.692;2023-04-01T03:08:02;97301.16;;;9.13;100.00
9474;BME280;8865;47.636;7.692;2023-04-01T03:10:28;97315.16;;;8.94;100.00
9474;BME280;8865;47.636;7.692;2023-04-01T03:12:54;97335.41;;;8.82;100.00
9474;BME280;8865;47.636;7.692;2023-04-01T03:15:20;97327.78;;;8.61;100.00
9474;BME280;8865;47.636;7.692;2023-04-01T03:17:46;97342.09;;;8.47;100.00
9474;BME280;8865;47.636;7.692;2023-04-01T03:20:12;97350.06;;;8.36;100.00
9474;BME280;8865;47.636;7.692;2023-04-01T03:22:39;97342.94;;;8.28;100.00
9474;BME280;8865;47.636;7.692;2023-04-01T03:25:05;97342.38;;;8.25;100.00
9474;BME280;8865;47.636;7.692;2023-04-01T03:27:33;97334.16;;;8.19;100.00
9474;BME280;8865;47.636;7.692;2023-04-01T03:30:02;97344.75;;;8.18;100.00
9474;BME280;8865;47.636;7.692;2023-04-01T03:32:29;97341.03;;;8.20;100.00
9474;BME280;8865;47.636;7.692;2023-04-01T03:34:55;97348.44;;;8.25;100.00
9474;BME280;8865;47.636;7.692;2023-04-01T03:37:22;97348.03;;;8.30;100.00
9474;BME280;8865;47.636;7.692;2023-04-01T03:39:48;97348.81;;;8.40;100.00
9474;BME280;8865;47.636;7.692;2023-04-01T03:42:14;97350.22;;;8.44;100.00
9474;BME280;8865;47.636;7.692;2023-04-01T03:44:40;97348.53;;;8.53;100.00
9474;BME280;8865;47.636;7.692;2023-04-01T03:47:06;97346.59;;;8.55;100.00
9474;BME280;8865;47.636;7.692;2023-04-01T03:49:33;97350.06;;;8.55;100.00
9474;BME280;8865;47.636;7.692;2023-04-01T03:51:59;97346.47;;;8.56;100.00
9474;BME280;8865;47.636;7.692;2023-04-01T03:54:25;97336.72;;;8.58;100.00
9474;BME280;8865;47.636;7.692;2023-04-01T03:56:51;97332.06;;;8.52;100.00
9474;BME280;8865;47.636;7.692;2023-04-01T03:59:17;97335.09;;;8.48;100.00
9474;BME280;8865;47.636;7.692;2023-04-01T04:01:43;97343.31;;;8.53;100.00
9474;BME280;8865;47.636;7.692;2023-04-01T04:04:11;97339.91;;;8.52;100.00
9474;BME280;8865;47.636;7.692;2023-04-01T04:06:38;97350.75;;;8.38;100.00
9474;BME280;8865;47.636;7.692;2023-04-01T04:09:04;97341.00;;;8.50;100.00
9474;BME280;8865;47.636;7.692;2023-04-01T04:11:31;97342.78;;;8.39;100.00
9474;BME280;8865;47.636;7.692;2023-04-01T04:13:58;97342.78;;;8.49;100.00
9474;BME280;8865;47.636;7.692;2023-04-01T04:16:25;97334.41;;;8.55;100.00
9474;BME280;8865;47.636;7.692;2023-04-01T04:18:51;97338.81;;;8.45;100.00
9474;BME280;8865;47.636;7.692;2023-04-01T04:21:17;97333.47;;;8.47;100.00
9474;BME280;8865;47.636;7.692;2023-04-01T04:23:43;97319.84;;;8.43;100.00
9474;BME280;8865;47.636;7.692;2023-04-01T04:26:11;97331.66;;;8.37;100.00
9474;BME280;8865;47.636;7.692;2023-04-01T04:28:38;97320.66;;;8.34;100.00
9474;BME280;8865;47.636;7.692;2023-04-01T04:31:05;97325.88;;;8.34;100.00
9474;BME280;8865;47.636;7.692;2023-04-01T04:33:33;97309.97;;;8.27;100.00
9474;BME280;8865;47.636;7.692;2023-04-01T04:35:59;97318.34;;;8.31;100.00
9474;BME280;8865;47.636;7.692;2023-04-01T04:38:26;97309.84;;;8.29;100.00
9474;BME280;8865;47.636;7.692;2023-04-01T04:40:53;97301.75;;;8.32;100.00
9474;BME280;8865;47.636;7.692;2023-04-01T04:43:19;97304.09;;;8.25;100.00
9474;BME280;8865;47.636;7.692;2023-04-01T04:45:46;97307.53;;;8.26;100.00
9474;BME280;8865;47.636;7.692;2023-04-01T04:48:13;97307.00;;;8.22;100.00
9474;BME280;8865;47.636;7.692;2023-04-01T04:50:48;97300.13;;;8.21;100.00
9474;BME280;8865;47.636;7.692;2023-04-01T04:53:16;97312.72;;;8.26;100.00
9474;BME280;8865;47.636;7.692;2023-04-01T04:55:49;97293.91;;;8.32;100.00
9474;BME280;8865;47.636;7.692;2023-04-01T04:58:16;97304.50;;;8.30;100.00
9474;BME280;8865;47.636;7.692;2023-04-01T05:00:43;97301.44;;;8.35;100.00
9474;BME280;8865;47.636;7.692;2023-04-01T05:03:10;97300.34;;;8.37;100.00
9474;BME280;8865;47.636;7.692;2023-04-01T05:05:36;97290.72;;;8.38;100.00
9474;BME280;8865;47.636;7.692;2023-04-01T05:08:02;97300.22;;;8.39;100.00
9474;BME280;8865;47.636;7.692;2023-04-01T05:10:29;97283.31;;;8.43;100.00
9474;BME280;8865;47.636;7.692;2023-04-01T05:12:55;97291.84;;;8.45;100.00
9474;BME280;8865;47.636;7.692;2023-04-01T05:15:21;97296.13;;;8.46;100.00
9474;BME280;8865;47.636;7.692;2023-04-01T05:17:47;97291.56;;;8.48;100.00
9474;BME280;8865;47.636;7.692;2023-04-01T05:20:13;97287.72;;;8.52;100.00
9474;BME280;8865;47.636;7.692;2023-04-01T05:22:40;97292.22;;;8.50;100.00
9474;BME280;8865;47.636;7.692;2023-04-01T05:25:06;97281.22;;;8.56;100.00
9474;BME280;8865;47.636;7.692;2023-04-01T05:27:33;97286.00;;;8.61;100.00
9474;BME280;8865;47.636;7.692;2023-04-01T05:29:59;97283.25;;;8.63;100.00
9474;BME280;8865;47.636;7.692;2023-04-01T05:32:25;97286.84;;;8.62;100.00
9474;BME280;8865;47.636;7.692;2023-04-01T05:34:51;97275.00;;;8.67;100.00
9474;BME280;8865;47.636;7.692;2023-04-01T05:37:17;97282.38;;;8.72;100.00
9474;BME280;8865;47.636;7.692;2023-04-01T05:39:43;97270.84;;;8.74;100.00
9474;BME280;8865;47.636;7.692;2023-04-01T05:42:09;97258.75;;;8.73;100.00
9474;BME280;8865;47.636;7.692;2023-04-01T05:44:36;97258.03;;;8.81;100.00
9474;BME280;8865;47.636;7.692;2023-04-01T05:47:03;97266.56;;;8.83;100.00
9474;BME280;8865;47.636;7.692;2023-04-01T05:49:29;97261.03;;;8.86;100.00
9474;BME280;8865;47.636;7.692;2023-04-01T05:51:56;97270.50;;;8.87;100.00
9474;BME280;8865;47.636;7.692;2023-04-01T05:54:22;97273.41;;;8.84;100.00
9474;BME280;8865;47.636;7.692;2023-04-01T05:56:48;97256.84;;;8.93;100.00
9474;BME280;8865;47.636;7.692;2023-04-01T05:59:15;97259.75;;;8.90;100.00
9474;BME280;8865;47.636;7.692;2023-04-01T06:01:41;97265.97;;;8.89;100.00
9474;BME280;8865;47.636;7.692;2023-04-01T06:04:13;97264.03;;;8.91;100.00
9474;BME280;8865;47.636;7.692;2023-04-01T06:06:40;97272.22;;;8.97;100.00
9474;BME280;8865;47.636;7.692;2023-04-01T06:09:19;97279.63;;;9.01;100.00
9474;BME280;8865;47.636;7.692;2023-04-01T06:12:01;97280.47;;;9.02;100.00
9474;BME280;8865;47.636;7.692;2023-04-01T06:19:44;97284.47;;;8.96;100.00
9474;BME280;8865;47.636;7.692;2023-04-01T06:22:26;97280.75;;;8.99;100.00
9474;BME280;8865;47.636;7.692;2023-04-01T06:25:09;97279.78;;;9.00;100.00
9474;BME280;8865;47.636;7.692;2023-04-01T06:30:30;97290.91;;;9.02;100.00
9474;BME280;8865;47.636;7.692;2023-04-01T06:35:51;97290.00;;;8.93;100.00
9474;BME280;8865;47.636;7.692;2023-04-01T06:38:48;97285.34;;;8.87;100.00
9474;BME280;8865;47.636;7.692;2023-04-01T06:41:33;97279.47;;;8.85;100.00
9474;BME280;8865;47.636;7.692;2023-04-01T06:54:26;97283.66;;;8.96;100.00
9474;BME280;8865;47.636;7.692;2023-04-01T06:57:00;97283.66;;;8.96;100.00
9474;BME280;8865;47.636;7.692;2023-04-01T06:59:30;97285.97;;;8.99;100.00
9474;BME280;8865;47.636;7.692;2023-04-01T07:04:40;97278.22;;;9.07;100.00
9474;BME280;8865;47.636;7.692;2023-04-01T07:09:58;97280.53;;;9.10;100.00
9474;BME280;8865;47.636;7.692;2023-04-01T07:15:13;97295.03;;;9.22;100.00
9474;BME280;8865;47.636;7.692;2023-04-01T07:17:43;97285.50;;;9.31;100.00
9474;BME280;8865;47.636;7.692;2023-04-01T07:20:32;97295.50;;;9.36;100.00
9474;BME280;8865;47.636;7.692;2023-04-01T07:23:02;97294.50;;;9.37;100.00
9474;BME280;8865;47.636;7.692;2023-04-01T07:25:43;97298.78;;;9.38;100.00
9474;BME280;8865;47.636;7.692;2023-04-01T07:28:15;97304.81;;;9.38;100.00
9474;BME280;8865;47.636;7.692;2023-04-01T07:36:10;97312.38;;;9.41;100.00
9474;BME280;8865;47.636;7.692;2023-04-01T07:39:00;97316.47;;;9.44;100.00
9474;BME280;8865;47.636;7.692;2023-04-01T08:02:41;97323.50;;;9.43;100.00
9474;BME280;8865;47.636;7.692;2023-04-01T08:05:28;97314.69;;;9.44;100.00
9474;BME280;8865;47.636;7.692;2023-04-01T08:11:29;97328.75;;;9.43;100.00
9474;BME280;8865;47.636;7.692;2023-04-01T08:14:20;97327.84;;;9.53;100.00
9474;BME280;8865;47.636;7.692;2023-04-01T08:22:11;97326.03;;;9.53;100.00
9474;BME280;8865;47.636;7.692;2023-04-01T08:24:41;97319.56;;;9.57;100.00
9474;BME280;8865;47.636;7.692;2023-04-01T08:27:34;97329.28;;;9.65;100.00
9474;BME280;8865;47.636;7.692;2023-04-01T08:30:28;97331.94;;;9.73;100.00
9474;BME280;8865;47.636;7.692;2023-04-01T08:32:57;97322.78;;;9.69;100.00
9474;BME280;8865;47.636;7.692;2023-04-01T08:35:30;97324.03;;;9.83;100.00
9474;BME280;8865;47.636;7.692;2023-04-01T08:38:01;97322.78;;;9.69;100.00
9474;BME280;8865;47.636;7.692;2023-04-01T08:40:54;97321.19;;;9.76;100.00
9474;BME280;8865;47.636;7.692;2023-04-01T08:54:44;97319.81;;;10.08;100.00
9474;BME280;8865;47.636;7.692;2023-04-01T09:00:15;97313.16;;;10.14;100.00
9474;BME280;8865;47.636;7.692;2023-04-01T09:16:27;97304.91;;;10.53;100.00
9474;BME280;8865;47.636;7.692;2023-04-01T09:19:03;97318.44;;;10.40;100.00
9474;BME280;8865;47.636;7.692;2023-04-01T09:27:28;97310.78;;;10.47;100.00
9474;BME280;8865;47.636;7.692;2023-04-01T09:33:22;97335.38;;;10.54;100.00
9474;BME280;8865;47.636;7.692;2023-04-01T09:38:57;97332.19;;;10.42;100.00
9474;BME280;8865;47.636;7.692;2023-04-01T09:42:06;97338.75;;;10.46;100.00
9474;BME280;8865;47.636;7.692;2023-04-01T09:50:29;97338.97;;;10.53;100.00
9474;BME280;8865;47.636;7.692;2023-04-01T09:58:25;97348.97;;;10.58;100.00
9474;BME280;8865;47.636;7.692;2023-04-01T10:15:06;97360.03;;;10.78;100.00
9474;BME280;8865;47.636;7.692;2023-04-01T10:18:01;97363.69;;;10.85;100.00
9474;BME280;8865;47.636;7.692;2023-04-01T10:32:24;97376.53;;;10.70;100.00
9474;BME280;8865;47.636;7.692;2023-04-01T10:40:38;97386.06;;;10.79;100.00
9474;BME280;8865;47.636;7.692;2023-04-01T10:51:14;97382.13;;;10.49;100.00
9474;BME280;8865;47.636;7.692;2023-04-01T10:54:04;97391.44;;;10.43;100.00
9474;BME280;8865;47.636;7.692;2023-04-01T10:57:07;97388.94;;;10.24;100.00
9474;BME280;8865;47.636;7.692;2023-04-01T11:16:44;97396.31;;;10.64;100.00
9474;BME280;8865;47.636;7.692;2023-04-01T11:43:34;97370.41;;;11.81;100.00
9474;BME280;8865;47.636;7.692;2023-04-01T11:46:19;97364.97;;;11.66;100.00
9474;BME280;8865;47.636;7.692;2023-04-01T11:57:46;97359.41;;;11.86;100.00
9474;BME280;8865;47.636;7.692;2023-04-01T12:09:44;97325.81;;;12.14;100.00
9474;BME280;8865;47.636;7.692;2023-04-01T12:22:17;97322.22;;;13.27;100.00
9474;BME280;8865;47.636;7.692;2023-04-01T12:27:53;97306.28;;;13.20;100.00
9474;BME280;8865;47.636;7.692;2023-04-01T12:30:45;97308.78;;;12.82;100.00
9474;BME280;8865;47.636;7.692;2023-04-01T12:33:18;97330.38;;;12.45;100.00
9474;BME280;8865;47.636;7.692;2023-04-01T12:44:23;97325.16;;;12.93;100.00
9474;BME280;8865;47.636;7.692;2023-04-01T12:50:19;97308.47;;;13.48;100.00
9474;BME280;8865;47.636;7.692;2023-04-01T13:12:09;97334.94;;;13.15;100.00
9474;BME280;8865;47.636;7.692;2023-04-01T13:14:57;97330.81;;;12.73;100.00
9474;BME280;8865;47.636;7.692;2023-04-01T13:18:11;97322.59;;;12.76;100.00
9474;BME280;8865;47.636;7.692;2023-04-01T13:29:01;97329.47;;;14.41;100.00
9474;BME280;8865;47.636;7.692;2023-04-01T13:42:33;97328.81;;;15.43;100.00
9474;BME280;8865;47.636;7.692;2023-04-01T13:45:15;97335.53;;;14.94;100.00
9474;BME280;8865;47.636;7.692;2023-04-01T14:02:05;97332.34;;;14.16;100.00
9474;BME280;8865;47.636;7.692;2023-04-01T14:07:30;97330.09;;;14.96;97.43
9474;BME280;8865;47.636;7.692;2023-04-01T14:21:23;97319.09;;;15.44;77.46
9474;BME280;8865;47.636;7.692;2023-04-01T14:24:18;97319.22;;;16.50;74.06
9474;BME280;8865;47.636;7.692;2023-04-01T14:35:28;97330.88;;;14.14;97.79
9474;BME280;8865;47.636;7.692;2023-04-01T14:41:16;97349.19;;;13.21;100.00
9474;BME280;8865;47.636;7.692;2023-04-01T14:43:48;97327.38;;;13.12;100.00
9474;BME280;8865;47.636;7.692;2023-04-01T14:49:17;97327.06;;;13.47;95.27
9474;BME280;8865;47.636;7.692;2023-04-01T14:51:46;97316.69;;;13.53;93.34
9474;BME280;8865;47.636;7.692;2023-04-01T14:54:33;97312.84;;;13.56;95.09
9474;BME280;8865;47.636;7.692;2023-04-01T14:57:11;97312.16;;;13.39;96.62
9474;BME280;8865;47.636;7.692;2023-04-01T14:59:48;97314.06;;;13.45;95.95
9474;BME280;8865;47.636;7.692;2023-04-01T15:08:33;97317.13;;;13.57;95.46
9474;BME280;8865;47.636;7.692;2023-04-01T15:11:23;97328.91;;;13.69;91.89
9474;BME280;8865;47.636;7.692;2023-04-01T15:14:17;97328.19;;;13.52;89.94
9474;BME280;8865;47.636;7.692;2023-04-01T15:25:22;97322.97;;;14.14;98.09
9474;BME280;8865;47.636;7.692;2023-04-01T15:36:23;97314.16;;;14.74;94.51
9474;BME280;8865;47.636;7.692;2023-04-01T15:44:41;97316.19;;;14.34;98.59
9474;BME280;8865;47.636;7.692;2023-04-01T15:49:53;97311.94;;;13.95;99.74
9474;BME280;8865;47.636;7.692;2023-04-01T15:52:58;97311.31;;;13.93;100.00
9474;BME280;8865;47.636;7.692;2023-04-01T15:56:22;97319.13;;;13.78;100.00
9474;BME280;8865;47.636;7.692;2023-04-01T15:58:46;97321.09;;;13.53;100.00
9474;BME280;8865;47.636;7.692;2023-04-01T16:01:50;97317.59;;;13.29;100.00
9474;BME280;8865;47.636;7.692;2023-04-01T16:15:46;97307.31;;;13.97;100.00
9474;BME280;8865;47.636;7.692;2023-04-01T16:20:53;97303.91;;;13.65;99.99
9474;BME280;8865;47.636;7.692;2023-04-01T16:23:26;97301.59;;;13.47;100.00
9474;BME280;8865;47.636;7.692;2023-04-01T16:28:39;97303.97;;;13.34;100.00
9474;BME280;8865;47.636;7.692;2023-04-01T16:31:10;97314.13;;;13.37;100.00
9474;BME280;8865;47.636;7.692;2023-04-01T16:33:51;97311.31;;;13.07;100.00
9474;BME280;8865;47.636;7.692;2023-04-01T16:41:56;97315.31;;;12.95;100.00
9474;BME280;8865;47.636;7.692;2023-04-01T16:44:54;97316.97;;;12.88;100.00
9474;BME280;8865;47.636;7.692;2023-04-01T16:47:34;97322.94;;;12.65;100.00
9474;BME280;8865;47.636;7.692;2023-04-01T16:55:47;97335.97;;;12.25;100.00
9474;BME280;8865;47.636;7.692;2023-04-01T16:58:23;97343.38;;;12.22;100.00
9474;BME280;8865;47.636;7.692;2023-04-01T17:01:20;97337.47;;;12.11;100.00
9474;BME280;8865;47.636;7.692;2023-04-01T17:03:58;97346.50;;;12.17;100.00
9474;BME280;8865;47.636;7.692;2023-04-01T17:06:56;97341.06;;;12.19;100.00
9474;BME280;8865;47.636;7.692;2023-04-01T17:12:27;97342.56;;;11.96;100.00
9474;BME280;8865;47.636;7.692;2023-04-01T17:17:43;97356.59;;;11.71;100.00
9474;BME280;8865;47.636;7.692;2023-04-01T17:23:24;97357.03;;;11.50;100.00
9474;BME280;8865;47.636;7.692;2023-04-01T17:34:25;97362.72;;;11.29;100.00
9474;BME280;8865;47.636;7.692;2023-04-01T17:37:15;97364.38;;;11.30;100.00
9474;BME280;8865;47.636;7.692;2023-04-01T18:07:18;97427.44;;;10.94;100.00
9474;BME280;8865;47.636;7.692;2023-04-01T18:10:21;97432.16;;;10.90;100.00
9474;BME280;8865;47.636;7.692;2023-04-01T18:13:20;97432.91;;;10.82;100.00
9474;BME280;8865;47.636;7.692;2023-04-01T18:19:02;97446.28;;;10.71;100.00
9474;BME280;8865;47.636;7.692;2023-04-01T18:21:53;97455.84;;;10.62;100.00
9474;BME280;8865;47.636;7.692;2023-04-01T18:27:17;97467.78;;;10.39;100.00
9474;BME280;8865;47.636;7.692;2023-04-01T18:29:54;97475.25;;;10.15;100.00
9474;BME280;8865;47.636;7.692;2023-04-01T18:35:29;97485.31;;;10.10;100.00
9474;BME280;8865;47.636;7.692;2023-04-01T18:38:08;97492.84;;;10.13;100.00
9474;BME280;8865;47.636;7.692;2023-04-01T18:40:38;97488.00;;;10.00;100.00
9474;BME280;8865;47.636;7.692;2023-04-01T18:43:33;97491.66;;;9.90;100.00
9474;BME280;8865;47.636;7.692;2023-04-01T18:51:48;97510.97;;;9.79;100.00
9474;BME280;8865;47.636;7.692;2023-04-01T18:54:24;97518.81;;;9.79;100.00
9474;BME280;8865;47.636;7.692;2023-04-01T18:57:21;97525.84;;;9.78;100.00
9474;BME280;8865;47.636;7.692;2023-04-01T19:00:02;97523.69;;;9.64;100.00
9474;BME280;8865;47.636;7.692;2023-04-01T19:02:38;97514.53;;;9.60;100.00
9474;BME280;8865;47.636;7.692;2023-04-01T19:10:54;97488.91;;;9.63;100.00
9474;BME280;8865;47.636;7.692;2023-04-01T19:13:42;97503.56;;;9.74;100.00
9474;BME280;8865;47.636;7.692;2023-04-01T19:19:49;97502.84;;;9.82;100.00
9474;BME280;8865;47.636;7.692;2023-04-01T19:27:52;97506.19;;;9.74;100.00
9474;BME280;8865;47.636;7.692;2023-04-01T19:30:42;97519.97;;;9.67;100.00
9474;BME280;8865;47.636;7.692;2023-04-01T19:41:47;97522.72;;;9.27;100.00
9474;BME280;8865;47.636;7.692;2023-04-01T19:52:40;97536.56;;;8.90;100.00
9474;BME280;8865;47.636;7.692;2023-04-01T19:58:10;97549.50;;;8.82;100.00
9474;BME280;8865;47.636;7.692;2023-04-01T20:00:50;97549.91;;;8.78;100.00
9474;BME280;8865;47.636;7.692;2023-04-01T20:09:24;97563.81;;;8.58;100.00
9474;BME280;8865;47.636;7.692;2023-04-01T20:14:45;97576.97;;;8.47;100.00
9474;BME280;8865;47.636;7.692;2023-04-01T20:17:20;97576.66;;;8.40;100.00
9474;BME280;8865;47.636;7.692;2023-04-01T20:23:07;97587.91;;;8.41;100.00
9474;BME280;8865;47.636;7.692;2023-04-01T20:25:52;97591.88;;;8.35;100.00
9474;BME280;8865;47.636;7.692;2023-04-01T20:28:25;97597.09;;;8.35;100.00
9474;BME280;8865;47.636;7.692;2023-04-01T20:36:31;97612.09;;;8.43;100.00
9474;BME280;8865;47.636;7.692;2023-04-01T20:53:17;97611.47;;;8.51;100.00
9474;BME280;8865;47.636;7.692;2023-04-01T20:58:28;97607.47;;;8.56;100.00
9474;BME280;8865;47.636;7.692;2023-04-01T21:04:04;97618.47;;;8.60;100.00
9474;BME280;8865;47.636;7.692;2023-04-01T21:06:50;97630.41;;;8.63;100.00
9474;BME280;8865;47.636;7.692;2023-04-01T21:18:12;97657.22;;;8.65;100.00
9474;BME280;8865;47.636;7.692;2023-04-01T21:34:57;97652.22;;;8.52;100.00
9474;BME280;8865;47.636;7.692;2023-04-01T21:37:28;97649.94;;;8.58;100.00
9474;BME280;8865;47.636;7.692;2023-04-01T21:40:27;97644.44;;;8.62;100.00
9474;BME280;8865;47.636;7.692;2023-04-01T21:51:09;97663.53;;;8.72;100.00
9474;BME280;8865;47.636;7.692;2023-04-01T22:05:21;97683.19;;;8.76;100.00
9474;BME280;8865;47.636;7.692;2023-04-01T22:07:54;97680.31;;;8.79;100.00
9474;BME280;8865;47.636;7.692;2023-04-01T22:15:58;97680.72;;;8.84;100.00
9474;BME280;8865;47.636;7.692;2023-04-01T22:18:46;97673.88;;;8.83;100.00
9474;BME280;8865;47.636;7.692;2023-04-01T22:21:51;97678.13;;;8.84;100.00
9474;BME280;8865;47.636;7.692;2023-04-01T22:27:25;97674.41;;;8.77;100.00
9474;BME280;8865;47.636;7.692;2023-04-01T22:32:31;97676.50;;;8.83;100.00
9474;BME280;8865;47.636;7.692;2023-04-01T22:40:30;97689.69;;;8.82;100.00
9474;BME280;8865;47.636;7.692;2023-04-01T22:43:07;97686.34;;;8.80;100.00
9474;BME280;8865;47.636;7.692;2023-04-01T22:45:56;97691.84;;;8.76;100.00
9474;BME280;8865;47.636;7.692;2023-04-01T22:51:19;97678.50;;;8.60;100.00
9474;BME280;8865;47.636;7.692;2023-04-01T22:56:45;97693.47;;;8.58;100.00
9474;BME280;8865;47.636;7.692;2023-04-01T22:59:19;97697.88;;;8.57;100.00
9474;BME280;8865;47.636;7.692;2023-04-01T23:01:55;97688.22;;;8.48;100.00
9474;BME280;8865;47.636;7.692;2023-04-01T23:04:29;97683.41;;;8.44;100.00
9474;BME280;8865;47.636;7.692;2023-04-01T23:07:00;97681.28;;;8.37;100.00
9474;BME280;8865;47.636;7.692;2023-04-01T23:09:36;97691.53;;;8.29;100.00
9474;BME280;8865;47.636;7.692;2023-04-01T23:14:51;97694.38;;;8.16;100.00
9474;BME280;8865;47.636;7.692;2023-04-01T23:18:30;97693.50;;;8.06;100.00
9474;BME280;8865;47.636;7.692;2023-04-01T23:23:11;97707.06;;;8.00;100.00
9474;BME280;8865;47.636;7.692;2023-04-01T23:31:31;97723.59;;;8.10;100.00
9474;BME280;8865;47.636;7.692;2023-04-01T23:34:00;97725.13;;;8.13;100.00
9474;BME280;8865;47.636;7.692;2023-04-01T23:36:28;97725.13;;;8.13;100.00
9474;BME280;8865;47.636;7.692;2023-04-01T23:38:55;97726.75;;;8.14;100.00
9474;BME280;8865;47.636;7.692;2023-04-01T23:41:30;97729.13;;;8.17;100.00
9474;BME280;8865;47.636;7.692;2023-04-01T23:44:05;97730.38;;;8.22;100.00
9474;BME280;8865;47.636;7.692;2023-04-01T23:46:34;97724.22;;;8.23;100.00
9474;BME280;8865;47.636;7.692;2023-04-01T23:49:02;97730.13;;;8.26;100.00
9474;BME280;8865;47.636;7.692;2023-04-01T23:51:37;97719.13;;;8.22;100.00
9474;BME280;8865;47.636;7.692;2023-04-01T23:54:14;97727.91;;;8.21;100.00
9474;BME280;8865;47.636;7.692;2023-04-01T23:56:48;97730.38;;;8.22;100.00